sensor_id;sensor_type;location;lat;lon;timestamp;P1;durP1;ratioP1;P2;durP2;ratioP2
46723;SDS011;32463;48.298;11.620;2022-09-30T00:00:30;21.38;;;14.13;;
46723;SDS011;32463;48.298;11.620;2022-09-30T00:02:56;20.52;;;13.75;;
46723;SDS011;32463;48.298;11.620;2022-09-30T00:05:23;20.85;;;14.20;;
46723;SDS011;32463;48.298;11.620;2022-09-30T00:07:49;21.92;;;14.32;;
46723;SDS011;32463;48.298;11.620;2022-09-30T00:10:15;22.15;;;14.98;;
46723;SDS011;32463;48.298;11.620;2022-09-30T00:12:42;23.00;;;14.68;;
46723;SDS011;32463;48.298;11.620;2022-09-30T00:15:08;24.05;;;14.73;;
46723;SDS011;32463;48.298;11.620;2022-09-30T00:17:35;19.08;;;12.82;;
46723;SDS011;32463;48.298;11.620;2022-09-30T00:20:02;15.20;;;10.13;;
46723;SDS011;32463;48.298;11.620;2022-09-30T00:22:28;19.00;;;12.63;;
46723;SDS011;32463;48.298;11.620;2022-09-30T00:24:55;20.70;;;14.88;;
46723;SDS011;32463;48.298;11.620;2022-09-30T00:27:22;16.90;;;12.23;;
46723;SDS011;32463;48.298;11.620;2022-09-30T00:29:48;19.88;;;13.90;;
46723;SDS011;32463;48.298;11.620;2022-09-30T00:32:15;18.92;;;13.43;;
46723;SDS011;32463;48.298;11.620;2022-09-30T00:34:41;19.27;;;13.35;;
46723;SDS011;32463;48.298;11.620;2022-09-30T00:37:08;23.80;;;15.75;;
46723;SDS011;32463;48.298;11.620;2022-09-30T00:39:39;24.75;;;15.02;;
46723;SDS011;32463;48.298;11.620;2022-09-30T00:42:06;23.17;;;15.55;;
46723;SDS011;32463;48.298;11.620;2022-09-30T00:44:48;24.40;;;16.40;;
46723;SDS011;32463;48.298;11.620;2022-09-30T00:50:47;25.05;;;15.90;;
46723;SDS011;32463;48.298;11.620;2022-09-30T00:52:50;27.02;;;17.73;;
46723;SDS011;32463;48.298;11.620;2022-09-30T00:55:32;23.27;;;16.30;;
46723;SDS011;32463;48.298;11.620;2022-09-30T00:58:04;24.42;;;14.80;;
46723;SDS011;32463;48.298;11.620;2022-09-30T01:00:33;19.48;;;12.95;;
46723;SDS011;32463;48.298;11.620;2022-09-30T01:02:59;19.38;;;13.73;;
46723;SDS011;32463;48.298;11.620;2022-09-30T01:05:27;17.98;;;13.57;;
46723;SDS011;32463;48.298;11.620;2022-09-30T01:07:57;21.80;;;14.23;;
46723;SDS011;32463;48.298;11.620;2022-09-30T01:10:27;26.38;;;15.82;;
46723;SDS011;32463;48.298;11.620;2022-09-30T01:12:54;21.63;;;14.43;;
46723;SDS011;32463;48.298;11.620;2022-09-30T01:15:22;23.70;;;14.07;;
46723;SDS011;32463;48.298;11.620;2022-09-30T01:18:07;29.77;;;17.23;;
46723;SDS011;32463;48.298;11.620;2022-09-30T01:26:46;33.30;;;18.20;;
46723;SDS011;32463;48.298;11.620;2022-09-30T01:29:28;25.98;;;16.70;;
46723;SDS011;32463;48.298;11.620;2022-09-30T01:35:18;23.77;;;16.02;;
46723;SDS011;32463;48.298;11.620;2022-09-30T01:41:02;27.77;;;16.08;;
46723;SDS011;32463;48.298;11.620;2022-09-30T01:52:08;26.38;;;16.30;;
46723;SDS011;32463;48.298;11.620;2022-09-30T01:54:46;30.17;;;19.75;;
46723;SDS011;32463;48.298;11.620;2022-09-30T01:57:22;29.17;;;17.90;;
46723;SDS011;32463;48.298;11.620;2022-09-30T02:00:05;32.05;;;20.05;;
46723;SDS011;32463;48.298;11.620;2022-09-30T02:08:03;28.52;;;18.15;;
46723;SDS011;32463;48.298;11.620;2022-09-30T02:10:41;27.08;;;17.40;;
46723;SDS011;32463;48.298;11.620;2022-09-30T02:13:22;27.70;;;18.38;;
46723;SDS011;32463;48.298;11.620;2022-09-30T02:16:15;30.58;;;19.48;;
46723;SDS011;32463;48.298;11.620;2022-09-30T02:19:30;25.33;;;17.30;;
46723;SDS011;32463;48.298;11.620;2022-09-30T02:22:19;25.58;;;17.60;;
46723;SDS011;32463;48.298;11.620;2022-09-30T02:24:51;21.50;;;14.55;;
46723;SDS011;32463;48.298;11.620;2022-09-30T02:27:24;27.92;;;18.55;;
46723;SDS011;32463;48.298;11.620;2022-09-30T02:29:57;26.00;;;17.63;;
46723;SDS011;32463;48.298;11.620;2022-09-30T02:32:31;27.23;;;18.23;;
46723;SDS011;32463;48.298;11.620;2022-09-30T02:37:34;25.05;;;16.35;;
46723;SDS011;32463;48.298;11.620;2022-09-30T02:42:42;26.58;;;18.23;;
46723;SDS011;32463;48.298;11.620;2022-09-30T02:45:11;28.50;;;18.02;;
46723;SDS011;32463;48.298;11.620;2022-09-30T02:50:35;28.25;;;19.13;;
46723;SDS011;32463;48.298;11.620;2022-09-30T02:58:34;25.52;;;16.27;;
46723;SDS011;32463;48.298;11.620;2022-09-30T03:01:05;28.65;;;18.63;;
46723;SDS011;32463;48.298;11.620;2022-09-30T03:03:49;30.38;;;18.38;;
46723;SDS011;32463;48.298;11.620;2022-09-30T03:06:20;25.05;;;16.60;;
46723;SDS011;32463;48.298;11.620;2022-09-30T03:08:49;27.60;;;18.88;;
46723;SDS011;32463;48.298;11.620;2022-09-30T03:11:20;26.40;;;18.05;;
46723;SDS011;32463;48.298;11.620;2022-09-30T03:16:46;23.73;;;17.52;;
46723;SDS011;32463;48.298;11.620;2022-09-30T03:22:14;24.55;;;16.63;;
46723;SDS011;32463;48.298;11.620;2022-09-30T03:27:31;23.63;;;15.77;;
46723;SDS011;32463;48.298;11.620;2022-09-30T03:30:03;23.60;;;16.40;;
46723;SDS011;32463;48.298;11.620;2022-09-30T03:32:40;22.80;;;16.27;;
46723;SDS011;32463;48.298;11.620;2022-09-30T03:41:14;23.90;;;16.08;;
46723;SDS011;32463;48.298;11.620;2022-09-30T03:43:59;31.67;;;20.10;;
46723;SDS011;32463;48.298;11.620;2022-09-30T03:46:34;39.60;;;21.40;;
46723;SDS011;32463;48.298;11.620;2022-09-30T03:49:07;42.20;;;21.25;;
46723;SDS011;32463;48.298;11.620;2022-09-30T03:51:39;29.75;;;18.88;;
46723;SDS011;32463;48.298;11.620;2022-09-30T03:54:11;43.45;;;22.10;;
46723;SDS011;32463;48.298;11.620;2022-09-30T03:56:41;38.05;;;20.45;;
46723;SDS011;32463;48.298;11.620;2022-09-30T03:59:10;31.70;;;19.25;;
46723;SDS011;32463;48.298;11.620;2022-09-30T04:01:54;28.35;;;18.27;;
46723;SDS011;32463;48.298;11.620;2022-09-30T04:04:22;38.58;;;21.83;;
46723;SDS011;32463;48.298;11.620;2022-09-30T04:06:49;40.45;;;22.13;;
46723;SDS011;32463;48.298;11.620;2022-09-30T04:09:16;31.15;;;19.08;;
46723;SDS011;32463;48.298;11.620;2022-09-30T04:11:44;34.72;;;19.88;;
46723;SDS011;32463;48.298;11.620;2022-09-30T04:14:11;36.92;;;19.98;;
46723;SDS011;32463;48.298;11.620;2022-09-30T04:16:39;47.33;;;22.55;;
46723;SDS011;32463;48.298;11.620;2022-09-30T04:19:07;40.08;;;19.85;;
46723;SDS011;32463;48.298;11.620;2022-09-30T04:21:34;42.45;;;20.92;;
46723;SDS011;32463;48.298;11.620;2022-09-30T04:24:01;52.17;;;22.95;;
46723;SDS011;32463;48.298;11.620;2022-09-30T04:26:28;29.65;;;17.40;;
46723;SDS011;32463;48.298;11.620;2022-09-30T04:28:55;36.38;;;19.77;;
46723;SDS011;32463;48.298;11.620;2022-09-30T04:31:23;40.92;;;21.25;;
46723;SDS011;32463;48.298;11.620;2022-09-30T04:33:52;33.38;;;18.67;;
46723;SDS011;32463;48.298;11.620;2022-09-30T04:36:21;41.80;;;20.92;;
46723;SDS011;32463;48.298;11.620;2022-09-30T04:38:52;56.70;;;23.55;;
46723;SDS011;32463;48.298;11.620;2022-09-30T04:41:19;55.50;;;23.23;;
46723;SDS011;32463;48.298;11.620;2022-09-30T04:43:47;59.63;;;23.65;;
46723;SDS011;32463;48.298;11.620;2022-09-30T04:46:15;50.00;;;22.20;;
46723;SDS011;32463;48.298;11.620;2022-09-30T04:48:45;58.83;;;24.45;;
46723;SDS011;32463;48.298;11.620;2022-09-30T04:51:14;57.20;;;24.30;;
46723;SDS011;32463;48.298;11.620;2022-09-30T04:53:44;62.33;;;24.58;;
46723;SDS011;32463;48.298;11.620;2022-09-30T04:56:12;67.68;;;25.05;;
46723;SDS011;32463;48.298;11.620;2022-09-30T04:58:42;82.60;;;26.63;;
46723;SDS011;32463;48.298;11.620;2022-09-30T05:01:11;51.22;;;22.73;;
46723;SDS011;32463;48.298;11.620;2022-09-30T05:03:40;38.67;;;17.65;;
46723;SDS011;32463;48.298;11.620;2022-09-30T05:06:07;51.47;;;21.30;;
46723;SDS011;32463;48.298;11.620;2022-09-30T05:08:36;58.55;;;22.27;;
46723;SDS011;32463;48.298;11.620;2022-09-30T05:11:05;50.78;;;22.52;;
46723;SDS011;32463;48.298;11.620;2022-09-30T05:13:35;39.58;;;19.95;;
46723;SDS011;32463;48.298;11.620;2022-09-30T05:16:03;39.13;;;20.17;;
46723;SDS011;32463;48.298;11.620;2022-09-30T05:18:32;45.58;;;21.98;;
46723;SDS011;32463;48.298;11.620;2022-09-30T05:20:59;47.55;;;20.95;;
46723;SDS011;32463;48.298;11.620;2022-09-30T05:23:27;36.33;;;19.67;;
46723;SDS011;32463;48.298;11.620;2022-09-30T05:25:56;35.40;;;19.15;;
46723;SDS011;32463;48.298;11.620;2022-09-30T05:28:24;55.97;;;24.52;;
46723;SDS011;32463;48.298;11.620;2022-09-30T05:30:57;56.45;;;27.80;;
46723;SDS011;32463;48.298;11.620;2022-09-30T05:33:28;63.40;;;26.98;;
46723;SDS011;32463;48.298;11.620;2022-09-30T05:36:10;66.60;;;26.35;;
46723;SDS011;32463;48.298;11.620;2022-09-30T05:38:39;53.90;;;25.35;;
46723;SDS011;32463;48.298;11.620;2022-09-30T05:41:07;38.55;;;19.67;;
46723;SDS011;32463;48.298;11.620;2022-09-30T05:43:37;58.90;;;28.83;;
46723;SDS011;32463;48.298;11.620;2022-09-30T05:46:05;47.67;;;25.67;;
46723;SDS011;32463;48.298;11.620;2022-09-30T05:48:32;73.88;;;31.75;;
46723;SDS011;32463;48.298;11.620;2022-09-30T05:50:59;58.88;;;28.70;;
46723;SDS011;32463;48.298;11.620;2022-09-30T05:53:26;51.80;;;25.38;;
46723;SDS011;32463;48.298;11.620;2022-09-30T05:55:56;51.08;;;24.85;;
46723;SDS011;32463;48.298;11.620;2022-09-30T05:58:26;52.45;;;25.80;;
46723;SDS011;32463;48.298;11.620;2022-09-30T08:54:45;6.32;;;4.32;;
46723;SDS011;32463;48.298;11.620;2022-09-30T08:57:15;6.40;;;4.20;;
46723;SDS011;32463;48.298;11.620;2022-09-30T08:59:46;5.85;;;4.38;;
46723;SDS011;32463;48.298;11.620;2022-09-30T09:05:05;5.80;;;3.10;;
46723;SDS011;32463;48.298;11.620;2022-09-30T09:07:36;4.93;;;3.30;;
46723;SDS011;32463;48.298;11.620;2022-09-30T09:12:58;4.05;;;3.05;;
46723;SDS011;32463;48.298;11.620;2022-09-30T09:15:44;4.93;;;3.63;;
46723;SDS011;32463;48.298;11.620;2022-09-30T09:18:39;6.60;;;3.38;;
46723;SDS011;32463;48.298;11.620;2022-09-30T09:21:27;4.03;;;2.60;;
46723;SDS011;32463;48.298;11.620;2022-09-30T09:24:02;4.18;;;2.55;;
46723;SDS011;32463;48.298;11.620;2022-09-30T09:26:34;3.22;;;2.15;;
46723;SDS011;32463;48.298;11.620;2022-09-30T09:31:45;5.18;;;3.30;;
46723;SDS011;32463;48.298;11.620;2022-09-30T09:34:13;6.82;;;3.63;;
46723;SDS011;32463;48.298;11.620;2022-09-30T09:42:25;6.05;;;4.03;;
46723;SDS011;32463;48.298;11.620;2022-09-30T09:45:03;7.18;;;3.80;;
46723;SDS011;32463;48.298;11.620;2022-09-30T09:47:38;5.30;;;3.70;;
46723;SDS011;32463;48.298;11.620;2022-09-30T09:50:14;7.32;;;3.70;;
46723;SDS011;32463;48.298;11.620;2022-09-30T09:52:58;4.40;;;3.65;;
46723;SDS011;32463;48.298;11.620;2022-09-30T09:55:36;4.20;;;3.43;;
46723;SDS011;32463;48.298;11.620;2022-09-30T09:58:08;5.30;;;3.67;;
46723;SDS011;32463;48.298;11.620;2022-09-30T10:00:35;6.53;;;3.67;;
46723;SDS011;32463;48.298;11.620;2022-09-30T10:03:20;4.22;;;3.40;;
46723;SDS011;32463;48.298;11.620;2022-09-30T10:06:04;5.47;;;3.60;;
46723;SDS011;32463;48.298;11.620;2022-09-30T10:08:36;3.88;;;3.10;;
46723;SDS011;32463;48.298;11.620;2022-09-30T10:11:19;5.00;;;3.77;;
46723;SDS011;32463;48.298;11.620;2022-09-30T10:13:47;4.70;;;3.75;;
46723;SDS011;32463;48.298;11.620;2022-09-30T10:16:26;5.20;;;3.72;;
46723;SDS011;32463;48.298;11.620;2022-09-30T10:18:59;4.57;;;3.45;;
46723;SDS011;32463;48.298;11.620;2022-09-30T10:21:28;4.47;;;3.50;;
46723;SDS011;32463;48.298;11.620;2022-09-30T10:23:55;4.55;;;3.40;;
46723;SDS011;32463;48.298;11.620;2022-09-30T10:26:24;8.82;;;3.40;;
46723;SDS011;32463;48.298;11.620;2022-09-30T10:28:59;4.45;;;3.45;;
46723;SDS011;32463;48.298;11.620;2022-09-30T10:36:55;5.50;;;3.30;;
46723;SDS011;32463;48.298;11.620;2022-09-30T10:39:25;3.90;;;3.20;;
46723;SDS011;32463;48.298;11.620;2022-09-30T10:44:29;4.30;;;3.00;;
46723;SDS011;32463;48.298;11.620;2022-09-30T10:47:00;6.40;;;3.30;;
46723;SDS011;32463;48.298;11.620;2022-09-30T10:49:30;5.35;;;3.60;;
46723;SDS011;32463;48.298;11.620;2022-09-30T10:57:13;3.80;;;2.90;;
46723;SDS011;32463;48.298;11.620;2022-09-30T10:59:54;5.03;;;3.05;;
46723;SDS011;32463;48.298;11.620;2022-09-30T11:02:32;3.60;;;2.88;;
46723;SDS011;32463;48.298;11.620;2022-09-30T11:10:13;3.85;;;2.92;;
46723;SDS011;32463;48.298;11.620;2022-09-30T11:12:47;4.50;;;3.15;;
46723;SDS011;32463;48.298;11.620;2022-09-30T11:15:47;5.10;;;2.92;;
46723;SDS011;32463;48.298;11.620;2022-09-30T11:21:15;6.22;;;2.13;;
46723;SDS011;32463;48.298;11.620;2022-09-30T11:26:29;2.90;;;1.90;;
46723;SDS011;32463;48.298;11.620;2022-09-30T11:34:47;2.45;;;1.92;;
46723;SDS011;32463;48.298;11.620;2022-09-30T11:45:45;3.28;;;2.10;;
46723;SDS011;32463;48.298;11.620;2022-09-30T11:57:05;2.58;;;2.00;;
46723;SDS011;32463;48.298;11.620;2022-09-30T11:59:46;2.70;;;2.05;;
46723;SDS011;32463;48.298;11.620;2022-09-30T12:02:24;5.03;;;2.30;;
46723;SDS011;32463;48.298;11.620;2022-09-30T12:04:52;3.38;;;2.20;;
46723;SDS011;32463;48.298;11.620;2022-09-30T12:07:35;5.07;;;2.60;;
46723;SDS011;32463;48.298;11.620;2022-09-30T12:10:28;3.72;;;2.55;;
46723;SDS011;32463;48.298;11.620;2022-09-30T12:13:16;3.40;;;2.38;;
46723;SDS011;32463;48.298;11.620;2022-09-30T12:15:46;2.95;;;2.35;;
46723;SDS011;32463;48.298;11.620;2022-09-30T12:18:16;4.07;;;2.60;;
46723;SDS011;32463;48.298;11.620;2022-09-30T12:20:53;3.38;;;2.40;;
46723;SDS011;32463;48.298;11.620;2022-09-30T12:23:35;2.90;;;2.25;;
46723;SDS011;32463;48.298;11.620;2022-09-30T12:26:07;4.78;;;2.58;;
46723;SDS011;32463;48.298;11.620;2022-09-30T12:28:48;3.90;;;2.58;;
46723;SDS011;32463;48.298;11.620;2022-09-30T12:34:38;4.70;;;2.55;;
46723;SDS011;32463;48.298;11.620;2022-09-30T12:48:26;3.15;;;1.83;;
46723;SDS011;32463;48.298;11.620;2022-09-30T12:51:00;10.07;;;3.30;;
46723;SDS011;32463;48.298;11.620;2022-09-30T12:53:28;4.00;;;2.20;;
46723;SDS011;32463;48.298;11.620;2022-09-30T12:58:43;3.38;;;2.40;;
46723;SDS011;32463;48.298;11.620;2022-09-30T13:01:17;4.95;;;3.13;;
46723;SDS011;32463;48.298;11.620;2022-09-30T13:03:50;3.78;;;2.80;;
46723;SDS011;32463;48.298;11.620;2022-09-30T13:06:23;5.47;;;2.38;;
46723;SDS011;32463;48.298;11.620;2022-09-30T13:14:22;2.80;;;1.67;;
46723;SDS011;32463;48.298;11.620;2022-09-30T13:19:39;3.10;;;1.98;;
46723;SDS011;32463;48.298;11.620;2022-09-30T13:32:39;3.00;;;1.90;;
46723;SDS011;32463;48.298;11.620;2022-09-30T13:40:39;3.95;;;1.58;;
46723;SDS011;32463;48.298;11.620;2022-09-30T13:43:09;3.65;;;2.00;;
46723;SDS011;32463;48.298;11.620;2022-09-30T13:45:43;2.47;;;1.90;;
46723;SDS011;32463;48.298;11.620;2022-09-30T13:56:05;3.35;;;1.95;;
46723;SDS011;32463;48.298;11.620;2022-09-30T14:01:49;3.20;;;1.92;;
46723;SDS011;32463;48.298;11.620;2022-09-30T14:09:59;3.17;;;1.92;;
46723;SDS011;32463;48.298;11.620;2022-09-30T14:15:40;5.18;;;1.90;;
46723;SDS011;32463;48.298;11.620;2022-09-30T14:18:26;3.75;;;1.90;;
46723;SDS011;32463;48.298;11.620;2022-09-30T14:21:13;3.10;;;1.90;;
46723;SDS011;32463;48.298;11.620;2022-09-30T14:23:58;1.85;;;1.50;;
46723;SDS011;32463;48.298;11.620;2022-09-30T14:29:03;3.85;;;1.60;;
46723;SDS011;32463;48.298;11.620;2022-09-30T14:31:47;2.90;;;1.75;;
46723;SDS011;32463;48.298;11.620;2022-09-30T14:34:14;1.70;;;1.40;;
46723;SDS011;32463;48.298;11.620;2022-09-30T14:36:42;2.30;;;1.30;;
46723;SDS011;32463;48.298;11.620;2022-09-30T14:39:14;3.95;;;1.30;;
46723;SDS011;32463;48.298;11.620;2022-09-30T14:41:49;1.92;;;1.20;;
46723;SDS011;32463;48.298;11.620;2022-09-30T14:44:22;2.00;;;1.23;;
46723;SDS011;32463;48.298;11.620;2022-09-30T14:46:55;4.32;;;1.30;;
46723;SDS011;32463;48.298;11.620;2022-09-30T14:49:25;1.50;;;1.10;;
46723;SDS011;32463;48.298;11.620;2022-09-30T14:51:57;2.07;;;1.13;;
46723;SDS011;32463;48.298;11.620;2022-09-30T14:54:27;2.58;;;1.10;;
46723;SDS011;32463;48.298;11.620;2022-09-30T14:56:55;1.55;;;1.10;;
46723;SDS011;32463;48.298;11.620;2022-09-30T14:59:32;3.57;;;1.23;;
46723;SDS011;32463;48.298;11.620;2022-09-30T15:02:16;3.45;;;1.90;;
46723;SDS011;32463;48.298;11.620;2022-09-30T15:04:47;3.45;;;1.70;;
46723;SDS011;32463;48.298;11.620;2022-09-30T15:07:20;2.20;;;1.38;;
46723;SDS011;32463;48.298;11.620;2022-09-30T15:09:47;1.45;;;1.08;;
46723;SDS011;32463;48.298;11.620;2022-09-30T15:12:15;2.35;;;1.63;;
46723;SDS011;32463;48.298;11.620;2022-09-30T15:14:45;1.65;;;1.30;;
46723;SDS011;32463;48.298;11.620;2022-09-30T15:20:00;3.00;;;1.38;;
46723;SDS011;32463;48.298;11.620;2022-09-30T15:22:28;1.77;;;1.38;;
46723;SDS011;32463;48.298;11.620;2022-09-30T15:24:56;1.65;;;1.30;;
46723;SDS011;32463;48.298;11.620;2022-09-30T15:27:31;4.32;;;2.13;;
46723;SDS011;32463;48.298;11.620;2022-09-30T15:32:47;3.05;;;1.63;;
46723;SDS011;32463;48.298;11.620;2022-09-30T15:35:21;4.28;;;1.50;;
46723;SDS011;32463;48.298;11.620;2022-09-30T15:37:49;2.00;;;1.20;;
46723;SDS011;32463;48.298;11.620;2022-09-30T15:40:20;2.17;;;1.60;;
46723;SDS011;32463;48.298;11.620;2022-09-30T15:43:43;1.98;;;1.30;;
46723;SDS011;32463;48.298;11.620;2022-09-30T15:51:28;4.60;;;1.75;;
46723;SDS011;32463;48.298;11.620;2022-09-30T15:53:59;3.35;;;1.50;;
46723;SDS011;32463;48.298;11.620;2022-09-30T15:56:47;3.38;;;1.60;;
46723;SDS011;32463;48.298;11.620;2022-09-30T15:59:14;2.45;;;1.60;;
46723;SDS011;32463;48.298;11.620;2022-09-30T16:01:49;2.40;;;1.67;;
46723;SDS011;32463;48.298;11.620;2022-09-30T16:04:22;2.58;;;1.80;;
46723;SDS011;32463;48.298;11.620;2022-09-30T16:07:04;3.47;;;1.90;;
46723;SDS011;32463;48.298;11.620;2022-09-30T16:09:34;2.80;;;1.73;;
46723;SDS011;32463;48.298;11.620;2022-09-30T16:12:07;4.38;;;1.83;;
46723;SDS011;32463;48.298;11.620;2022-09-30T16:14:41;2.90;;;1.48;;
46723;SDS011;32463;48.298;11.620;2022-09-30T16:17:30;4.15;;;2.65;;
46723;SDS011;32463;48.298;11.620;2022-09-30T16:19:59;5.60;;;2.80;;
46723;SDS011;32463;48.298;11.620;2022-09-30T16:27:43;3.20;;;1.90;;
46723;SDS011;32463;48.298;11.620;2022-09-30T16:30:14;3.22;;;1.70;;
46723;SDS011;32463;48.298;11.620;2022-09-30T16:32:43;2.90;;;2.00;;
46723;SDS011;32463;48.298;11.620;2022-09-30T16:35:16;4.05;;;1.98;;
46723;SDS011;32463;48.298;11.620;2022-09-30T16:37:47;5.05;;;2.17;;
46723;SDS011;32463;48.298;11.620;2022-09-30T16:40:16;6.32;;;2.90;;
46723;SDS011;32463;48.298;11.620;2022-09-30T16:42:44;5.03;;;2.50;;
46723;SDS011;32463;48.298;11.620;2022-09-30T16:45:11;5.85;;;3.05;;
46723;SDS011;32463;48.298;11.620;2022-09-30T16:47:40;5.40;;;2.67;;
46723;SDS011;32463;48.298;11.620;2022-09-30T16:50:13;5.65;;;2.90;;
46723;SDS011;32463;48.298;11.620;2022-09-30T16:52:58;4.00;;;2.30;;
46723;SDS011;32463;48.298;11.620;2022-09-30T16:55:25;4.50;;;2.88;;
46723;SDS011;32463;48.298;11.620;2022-09-30T16:57:53;5.55;;;3.15;;
46723;SDS011;32463;48.298;11.620;2022-09-30T17:00:22;5.60;;;3.40;;
46723;SDS011;32463;48.298;11.620;2022-09-30T17:02:48;8.50;;;3.50;;
46723;SDS011;32463;48.298;11.620;2022-09-30T17:05:16;8.63;;;3.90;;
46723;SDS011;32463;48.298;11.620;2022-09-30T17:07:45;7.05;;;3.58;;
46723;SDS011;32463;48.298;11.620;2022-09-30T17:10:15;6.63;;;3.22;;
46723;SDS011;32463;48.298;11.620;2022-09-30T17:12:43;5.05;;;2.10;;
46723;SDS011;32463;48.298;11.620;2022-09-30T17:15:10;4.15;;;2.45;;
46723;SDS011;32463;48.298;11.620;2022-09-30T17:17:36;4.72;;;2.90;;
46723;SDS011;32463;48.298;11.620;2022-09-30T17:20:03;4.07;;;2.65;;
46723;SDS011;32463;48.298;11.620;2022-09-30T17:22:30;8.85;;;4.32;;
46723;SDS011;32463;48.298;11.620;2022-09-30T17:24:56;16.23;;;9.57;;
46723;SDS011;32463;48.298;11.620;2022-09-30T17:27:24;8.43;;;4.07;;
46723;SDS011;32463;48.298;11.620;2022-09-30T17:29:50;6.03;;;3.72;;
46723;SDS011;32463;48.298;11.620;2022-09-30T17:32:17;6.65;;;3.63;;
46723;SDS011;32463;48.298;11.620;2022-09-30T17:34:43;10.00;;;4.60;;
46723;SDS011;32463;48.298;11.620;2022-09-30T17:37:10;10.45;;;6.20;;
46723;SDS011;32463;48.298;11.620;2022-09-30T17:39:38;10.40;;;6.78;;
46723;SDS011;32463;48.298;11.620;2022-09-30T17:42:07;17.77;;;8.82;;
46723;SDS011;32463;48.298;11.620;2022-09-30T17:44:55;8.85;;;6.22;;
46723;SDS011;32463;48.298;11.620;2022-09-30T17:47:24;8.65;;;5.57;;
46723;SDS011;32463;48.298;11.620;2022-09-30T17:49:51;7.55;;;5.57;;
46723;SDS011;32463;48.298;11.620;2022-09-30T17:52:18;7.25;;;4.70;;
46723;SDS011;32463;48.298;11.620;2022-09-30T17:54:45;7.63;;;4.53;;
46723;SDS011;32463;48.298;11.620;2022-09-30T17:57:13;6.82;;;3.50;;
46723;SDS011;32463;48.298;11.620;2022-09-30T17:59:39;8.90;;;4.90;;
46723;SDS011;32463;48.298;11.620;2022-09-30T18:02:09;6.18;;;3.92;;
46723;SDS011;32463;48.298;11.620;2022-09-30T18:04:37;7.20;;;3.78;;
46723;SDS011;32463;48.298;11.620;2022-09-30T18:07:03;6.20;;;4.13;;
46723;SDS011;32463;48.298;11.620;2022-09-30T18:09:30;4.72;;;3.58;;
46723;SDS011;32463;48.298;11.620;2022-09-30T18:11:57;7.28;;;3.67;;
46723;SDS011;32463;48.298;11.620;2022-09-30T18:14:24;5.53;;;3.42;;
46723;SDS011;32463;48.298;11.620;2022-09-30T18:16:55;5.15;;;3.92;;
46723;SDS011;32463;48.298;11.620;2022-09-30T18:19:22;8.27;;;4.60;;
46723;SDS011;32463;48.298;11.620;2022-09-30T18:21:49;6.63;;;3.88;;
46723;SDS011;32463;48.298;11.620;2022-09-30T18:24:15;5.55;;;3.20;;
46723;SDS011;32463;48.298;11.620;2022-09-30T18:27:02;4.18;;;3.00;;
46723;SDS011;32463;48.298;11.620;2022-09-30T18:29:29;4.50;;;2.85;;
46723;SDS011;32463;48.298;11.620;2022-09-30T18:31:55;6.57;;;3.90;;
46723;SDS011;32463;48.298;11.620;2022-09-30T18:34:22;6.18;;;4.40;;
46723;SDS011;32463;48.298;11.620;2022-09-30T18:36:51;9.02;;;4.60;;
46723;SDS011;32463;48.298;11.620;2022-09-30T18:39:17;7.82;;;4.70;;
46723;SDS011;32463;48.298;11.620;2022-09-30T18:41:46;11.80;;;6.50;;
46723;SDS011;32463;48.298;11.620;2022-09-30T18:44:13;13.85;;;7.95;;
46723;SDS011;32463;48.298;11.620;2022-09-30T18:46:40;11.18;;;7.20;;
46723;SDS011;32463;48.298;11.620;2022-09-30T18:49:07;9.90;;;6.13;;
46723;SDS011;32463;48.298;11.620;2022-09-30T18:51:34;8.27;;;5.38;;
46723;SDS011;32463;48.298;11.620;2022-09-30T18:54:01;8.70;;;5.50;;
46723;SDS011;32463;48.298;11.620;2022-09-30T18:56:30;8.70;;;5.30;;
46723;SDS011;32463;48.298;11.620;2022-09-30T18:58:58;9.82;;;5.88;;
46723;SDS011;32463;48.298;11.620;2022-09-30T19:01:26;5.72;;;4.18;;
46723;SDS011;32463;48.298;11.620;2022-09-30T19:03:53;7.43;;;4.38;;
46723;SDS011;32463;48.298;11.620;2022-09-30T19:06:19;6.68;;;3.83;;
46723;SDS011;32463;48.298;11.620;2022-09-30T19:08:46;6.55;;;3.90;;
46723;SDS011;32463;48.298;11.620;2022-09-30T19:11:12;7.25;;;3.47;;
46723;SDS011;32463;48.298;11.620;2022-09-30T19:13:42;5.32;;;3.80;;
46723;SDS011;32463;48.298;11.620;2022-09-30T19:16:12;5.50;;;3.83;;
46723;SDS011;32463;48.298;11.620;2022-09-30T19:18:42;4.28;;;3.05;;
46723;SDS011;32463;48.298;11.620;2022-09-30T19:21:10;5.68;;;3.75;;
46723;SDS011;32463;48.298;11.620;2022-09-30T19:23:39;5.20;;;3.78;;
46723;SDS011;32463;48.298;11.620;2022-09-30T19:26:06;6.47;;;3.97;;
46723;SDS011;32463;48.298;11.620;2022-09-30T19:28:38;5.83;;;3.67;;
46723;SDS011;32463;48.298;11.620;2022-09-30T19:31:05;9.35;;;4.47;;
46723;SDS011;32463;48.298;11.620;2022-09-30T19:33:41;5.40;;;3.90;;
46723;SDS011;32463;48.298;11.620;2022-09-30T19:36:09;5.13;;;2.83;;
46723;SDS011;32463;48.298;11.620;2022-09-30T19:38:39;9.98;;;5.18;;
46723;SDS011;32463;48.298;11.620;2022-09-30T19:41:06;8.82;;;4.85;;
46723;SDS011;32463;48.298;11.620;2022-09-30T19:43:33;9.63;;;4.55;;
46723;SDS011;32463;48.298;11.620;2022-09-30T19:46:03;7.82;;;4.38;;
46723;SDS011;32463;48.298;11.620;2022-09-30T19:48:31;10.45;;;5.75;;
46723;SDS011;32463;48.298;11.620;2022-09-30T19:51:00;10.68;;;6.15;;
46723;SDS011;32463;48.298;11.620;2022-09-30T19:53:35;11.07;;;6.80;;
46723;SDS011;32463;48.298;11.620;2022-09-30T19:56:16;9.75;;;7.57;;
46723;SDS011;32463;48.298;11.620;2022-09-30T19:58:45;12.77;;;7.97;;
46723;SDS011;32463;48.298;11.620;2022-09-30T20:01:14;8.80;;;6.13;;
46723;SDS011;32463;48.298;11.620;2022-09-30T20:03:42;11.13;;;6.82;;
46723;SDS011;32463;48.298;11.620;2022-09-30T20:06:10;9.82;;;6.00;;
46723;SDS011;32463;48.298;11.620;2022-09-30T20:08:48;10.65;;;6.47;;
46723;SDS011;32463;48.298;11.620;2022-09-30T20:11:17;7.68;;;5.55;;
46723;SDS011;32463;48.298;11.620;2022-09-30T20:13:48;10.82;;;6.22;;
46723;SDS011;32463;48.298;11.620;2022-09-30T20:16:37;9.35;;;6.22;;
46723;SDS011;32463;48.298;11.620;2022-09-30T20:19:03;10.80;;;6.22;;
46723;SDS011;32463;48.298;11.620;2022-09-30T20:21:29;10.13;;;6.63;;
46723;SDS011;32463;48.298;11.620;2022-09-30T20:23:56;8.30;;;5.40;;
46723;SDS011;32463;48.298;11.620;2022-09-30T20:26:23;10.25;;;6.38;;
46723;SDS011;32463;48.298;11.620;2022-09-30T20:28:57;9.10;;;6.80;;
46723;SDS011;32463;48.298;11.620;2022-09-30T20:31:24;16.77;;;8.25;;
46723;SDS011;32463;48.298;11.620;2022-09-30T20:33:54;12.45;;;8.35;;
46723;SDS011;32463;48.298;11.620;2022-09-30T20:36:22;9.77;;;6.15;;
46723;SDS011;32463;48.298;11.620;2022-09-30T20:38:50;13.75;;;8.82;;
46723;SDS011;32463;48.298;11.620;2022-09-30T20:41:18;14.02;;;9.63;;
46723;SDS011;32463;48.298;11.620;2022-09-30T20:43:48;11.65;;;7.93;;
46723;SDS011;32463;48.298;11.620;2022-09-30T20:46:16;14.40;;;9.75;;
46723;SDS011;32463;48.298;11.620;2022-09-30T20:48:42;15.10;;;10.25;;
46723;SDS011;32463;48.298;11.620;2022-09-30T20:51:09;17.17;;;10.80;;
46723;SDS011;32463;48.298;11.620;2022-09-30T20:53:37;15.70;;;9.88;;
46723;SDS011;32463;48.298;11.620;2022-09-30T20:56:05;15.02;;;9.52;;
46723;SDS011;32463;48.298;11.620;2022-09-30T20:58:33;11.98;;;8.07;;
46723;SDS011;32463;48.298;11.620;2022-09-30T21:01:08;10.35;;;6.68;;